CheckWX is a tool to help pilots better visualize weather data.  It is not intended as a substitute for an official pre-flight weather briefing.

14:50:53 UTC

CYHK METAR
Gjoa Haven Airport
Gjoa Haven, Canada
Current

51 mins ago

CYHK 201400Z 06009KT 15SM OVC055 M06/M07 A3024 RMK SC8 SLP246
Observed
May-20 @ 14:00 UTC
Wind
  • 060° at 9 KTS
Visibility
15 SM
Flight Rules
VFR
Cloud Levels
  • Overcast at 5,500' AGL
Temperature
-6°C / 21°F
Dewpoint
-7°C / 19°F
Humidity
93%
Altimeter
30.24" Hg
Pressure
1024.02 hPa
Previous

2 hours ago

CYHK 201300Z 08007KT 15SM OVC055 M07/M07 A3025 RMK SC8 SLP251
Observed
May-20 @ 13:00 UTC
Wind
  • 080° at 7 KTS
Visibility
15 SM
Flight Rules
VFR
Cloud Levels
  • Overcast at 5,500' AGL
Temperature
-7°C / 19°F
Dewpoint
-7°C / 19°F
Humidity
100%
Altimeter
30.25" Hg
Pressure
1024.42 hPa
Previous

3 hours ago

CYHK 201200Z 08008KT 15SM SCT020 OVC050 M07/M07 A3025 RMK SC4SC4 TR/24 SNW CVR/TRACE LOOSE SLP252
Observed
May-20 @ 12:00 UTC
Wind
  • 080° at 8 KTS
Visibility
15 SM
Flight Rules
VFR
Cloud Levels
  • Scattered at 2,000' AGL
  • Overcast at 5,000' AGL
Temperature
-7°C / 19°F
Dewpoint
-7°C / 19°F
Humidity
100%
Altimeter
30.25" Hg
Pressure
1024.42 hPa